Time;durP1;ratioP1;P1;durP2;ratioP2;P2;SDS_P1;SDS_P2;PMS_P1;PMS_P2;Temp;Humidity;BMP_temperature;BMP_pressure;BME280_temperature;BME280_humidity;BME280_pressure;Samples;Min_cycle;Max_cycle;Signal;HPM_P1;HPM_P2
2022/07/31 00:00:18;;;;;;;1.60;0.65;;;20.60;85.20;;;;;;4996121;28;20057;-74
2022/07/31 00:02:44;;;;;;;1.73;0.65;;;20.50;85.80;;;;;;4995963;28;20030;-73
2022/07/31 00:05:09;;;;;;;3.35;0.70;;;20.30;86.10;;;;;;4995817;28;20111;-73
2022/07/31 00:07:35;;;;;;;3.25;0.90;;;20.30;85.90;;;;;;4995593;28;20027;-73
2022/07/31 00:10:02;;;;;;;1.60;0.93;;;20.20;86.10;;;;;;4995668;28;20030;-73
2022/07/31 00:12:45;;;;;;;2.22;1.05;;;20.50;85.30;;;;;;4995272;28;20026;-73
2022/07/31 00:15:11;;;;;;;1.73;0.70;;;20.20;86.60;;;;;;4995519;28;20026;-73
2022/07/31 00:17:41;;;;;;;3.92;1.23;;;20.00;86.60;;;;;;4995742;28;20029;-73
2022/07/31 00:20:12;;;;;;;2.60;0.82;;;20.00;87.80;;;;;;4995721;28;20535;-73
2022/07/31 00:22:38;;;;;;;6.13;0.90;;;19.60;88.80;;;;;;4995415;28;20481;-73
2022/07/31 00:25:04;;;;;;;2.17;0.95;;;19.50;89.30;;;;;;4995463;28;20263;-73
2022/07/31 00:27:30;;;;;;;3.53;0.73;;;19.80;88.00;;;;;;4995573;28;20114;-73
2022/07/31 00:29:56;;;;;;;4.90;0.70;;;19.80;87.90;;;;;;4995473;28;20058;-73
2022/07/31 00:32:21;;;;;;;1.33;0.75;;;19.90;87.90;;;;;;4995355;28;20031;-73
2022/07/31 00:34:47;;;;;;;4.90;0.80;;;20.10;86.90;;;;;;4995153;28;20032;-73
2022/07/31 00:37:12;;;;;;;1.48;0.80;;;20.10;87.10;;;;;;4994596;28;20036;-73
2022/07/31 00:39:38;;;;;;;2.47;1.00;;;20.10;87.70;;;;;;4995279;28;20030;-73
2022/07/31 00:42:04;;;;;;;1.90;0.80;;;20.00;88.60;;;;;;4995421;28;20072;-73
2022/07/31 00:44:30;;;;;;;1.85;1.02;;;19.60;89.50;;;;;;4994758;28;20034;-73
2022/07/31 00:46:56;;;;;;;2.45;1.20;;;19.50;89.70;;;;;;4995208;28;20033;-73
2022/07/31 00:49:21;;;;;;;4.18;1.00;;;19.40;90.20;;;;;;4995508;28;20045;-73
2022/07/31 00:51:47;;;;;;;1.52;0.73;;;19.40;90.20;;;;;;4994743;28;20370;-73
2022/07/31 00:54:13;;;;;;;1.27;0.70;;;19.50;89.90;;;;;;4994942;28;20058;-73
2022/07/31 00:56:39;;;;;;;1.67;0.70;;;19.50;89.40;;;;;;4994903;28;20077;-73
2022/07/31 00:59:05;;;;;;;2.00;0.80;;;19.90;88.20;;;;;;4993361;28;20519;-73
2022/07/31 01:01:31;;;;;;;1.38;0.77;;;20.00;88.50;;;;;;4994770;28;20113;-73
2022/07/31 01:03:57;;;;;;;2.85;1.10;;;20.00;87.90;;;;;;4994838;28;20472;-73
2022/07/31 01:06:22;;;;;;;2.33;0.68;;;20.00;89.50;;;;;;4994528;28;20424;-73
2022/07/31 01:08:48;;;;;;;1.40;0.77;;;19.80;89.90;;;;;;4994610;28;20038;-73
2022/07/31 01:11:21;;;;;;;2.03;0.80;;;19.70;89.60;;;;;;4994744;28;20030;-73
2022/07/31 01:14:02;;;;;;;3.28;1.10;;;19.60;89.90;;;;;;4994614;28;20058;-73
2022/07/31 01:16:32;;;;;;;3.95;1.10;;;19.50;89.90;;;;;;4994711;28;20030;-73
2022/07/31 01:19:10;;;;;;;2.38;0.93;;;19.50;89.30;;;;;;4994336;28;20388;-73
2022/07/31 01:21:55;;;;;;;1.88;0.88;;;19.70;89.90;;;;;;4994555;28;20026;-73
2022/07/31 01:24:51;;;;;;;3.58;1.30;;;19.60;90.10;;;;;;4994487;28;20121;-73
2022/07/31 01:27:30;;;;;;;3.67;1.10;;;19.40;90.30;;;;;;4994116;28;20033;-73
2022/07/31 01:30:00;;;;;;;2.17;0.90;;;19.20;90.50;;;;;;4994612;28;20030;-73
2022/07/31 01:32:36;;;;;;;2.80;1.17;;;19.40;89.70;;;;;;4994382;28;20112;-73
2022/07/31 01:35:06;;;;;;;2.08;0.85;;;19.60;89.40;;;;;;4994403;28;20031;-73
2022/07/31 01:37:57;;;;;;;2.22;0.93;;;19.60;89.30;;;;;;4993958;28;20033;-73
2022/07/31 01:40:32;;;;;;;2.58;0.98;;;19.60;88.90;;;;;;4975544;28;20034;-74
2022/07/31 01:43:04;;;;;;;2.25;1.23;;;19.50;89.40;;;;;;4994219;28;20026;-73
2022/07/31 01:45:32;;;;;;;1.60;0.75;;;19.60;89.00;;;;;;4993911;28;20101;-74
2022/07/31 01:47:59;;;;;;;1.58;0.80;;;19.50;88.80;;;;;;4992920;28;20396;-74
2022/07/31 01:50:25;;;;;;;2.60;0.98;;;19.50;89.10;;;;;;4994102;28;20477;-73
2022/07/31 01:52:53;;;;;;;1.75;0.90;;;19.60;89.20;;;;;;4993935;28;20046;-73
2022/07/31 01:55:19;;;;;;;1.60;0.80;;;19.60;88.80;;;;;;4993998;28;20502;-73
2022/07/31 01:57:47;;;;;;;3.40;1.02;;;19.60;88.80;;;;;;4993830;28;20101;-73
2022/07/31 02:00:13;;;;;;;1.80;0.88;;;19.40;89.90;;;;;;4994023;28;20041;-73
2022/07/31 02:02:41;;;;;;;2.50;0.98;;;19.30;89.90;;;;;;4993740;28;20022;-73
2022/07/31 02:05:09;;;;;;;2.78;0.90;;;19.40;89.70;;;;;;4993937;28;20567;-74
2022/07/31 02:07:36;;;;;;;3.42;1.00;;;19.40;89.70;;;;;;4993660;28;20026;-73
2022/07/31 02:10:04;;;;;;;2.65;1.17;;;19.20;90.10;;;;;;4993980;28;20030;-74
2022/07/31 02:12:31;;;;;;;2.00;1.00;;;19.20;90.20;;;;;;4993524;28;20030;-73
2022/07/31 02:14:57;;;;;;;2.30;1.08;;;19.30;90.50;;;;;;4993704;28;20022;-73
2022/07/31 02:17:24;;;;;;;3.70;1.15;;;19.20;90.70;;;;;;4993360;28;20436;-73
2022/07/31 02:19:51;;;;;;;2.03;0.90;;;19.10;91.20;;;;;;4993911;28;20058;-73
2022/07/31 02:22:19;;;;;;;1.38;0.70;;;18.90;91.50;;;;;;4993492;28;20041;-74
2022/07/31 02:24:45;;;;;;;3.33;0.95;;;18.90;91.40;;;;;;4992351;28;20388;-73
2022/07/31 02:27:13;;;;;;;1.50;0.90;;;18.90;91.40;;;;;;4993356;28;20039;-73
2022/07/31 02:29:40;;;;;;;2.53;1.00;;;18.80;91.40;;;;;;4993504;28;20026;-73
2022/07/31 02:32:07;;;;;;;1.58;0.80;;;18.80;91.00;;;;;;4993389;28;20034;-74
2022/07/31 02:34:34;;;;;;;3.78;0.90;;;18.80;91.00;;;;;;4993781;28;20887;-73
2022/07/31 02:37:00;;;;;;;4.10;1.10;;;18.70;91.40;;;;;;4993292;28;20101;-73
2022/07/31 02:39:33;;;;;;;2.20;0.98;;;18.80;91.20;;;;;;4993963;28;20436;-73
2022/07/31 02:42:00;;;;;;;2.17;0.80;;;18.70;91.20;;;;;;4993513;28;20476;-73
2022/07/31 02:44:28;;;;;;;1.92;0.98;;;18.70;91.40;;;;;;4993092;28;20416;-73
2022/07/31 02:46:54;;;;;;;3.30;1.15;;;18.70;91.40;;;;;;4993063;28;20435;-73
2022/07/31 02:49:20;;;;;;;2.47;1.00;;;18.50;91.60;;;;;;4993161;28;20031;-73
2022/07/31 02:51:46;;;;;;;2.47;1.20;;;18.70;91.40;;;;;;4993208;28;20045;-73
2022/07/31 02:54:12;;;;;;;2.35;1.08;;;18.80;91.20;;;;;;4993536;28;20030;-73
2022/07/31 02:56:38;;;;;;;3.60;1.30;;;18.90;91.10;;;;;;4993258;28;20035;-73
2022/07/31 02:59:04;;;;;;;2.25;1.00;;;18.70;91.50;;;;;;4994285;28;20431;-74
2022/07/31 03:01:33;;;;;;;3.13;0.93;;;18.70;91.70;;;;;;4985475;28;20093;-72
2022/07/31 03:03:59;;;;;;;1.42;0.75;;;18.50;91.80;;;;;;4972786;28;20146;-72
2022/07/31 03:06:25;;;;;;;2.38;1.08;;;18.30;92.00;;;;;;4970423;28;20113;-72
2022/07/31 03:08:50;;;;;;;2.22;0.95;;;18.30;92.10;;;;;;4971410;28;20097;-73
2022/07/31 03:11:16;;;;;;;2.00;0.90;;;18.40;92.10;;;;;;4971153;28;20027;-72
2022/07/31 03:13:44;;;;;;;2.15;0.90;;;18.40;92.00;;;;;;4971472;28;20358;-72
2022/07/31 03:16:11;;;;;;;3.25;1.10;;;18.20;92.90;;;;;;4971126;28;20026;-72
2022/07/31 03:18:38;;;;;;;1.55;0.90;;;18.20;92.40;;;;;;4980903;28;20038;-72
2022/07/31 03:21:05;;;;;;;2.38;1.00;;;18.40;91.90;;;;;;4988278;28;20026;-72
2022/07/31 03:23:37;;;;;;;2.28;1.13;;;18.30;92.30;;;;;;4989597;28;20374;-72
2022/07/31 03:26:04;;;;;;;2.30;0.93;;;18.20;92.30;;;;;;4990994;28;20035;-72
2022/07/31 03:28:32;;;;;;;3.53;1.13;;;18.30;92.90;;;;;;4991126;28;20018;-72
2022/07/31 03:30:57;;;;;;;2.17;1.23;;;18.20;92.60;;;;;;4991304;28;20037;-72
2022/07/31 03:33:23;;;;;;;1.40;0.80;;;18.20;92.70;;;;;;4991552;28;20113;-72
2022/07/31 03:35:49;;;;;;;3.80;1.10;;;18.40;92.10;;;;;;4991355;28;20026;-72
2022/07/31 03:38:15;;;;;;;4.15;0.82;;;18.40;92.10;;;;;;4991045;28;20435;-72
2022/07/31 03:40:41;;;;;;;3.25;1.13;;;18.40;91.90;;;;;;4991181;28;20038;-72
2022/07/31 03:43:06;;;;;;;1.73;0.93;;;18.20;92.50;;;;;;4990945;28;20026;-72
2022/07/31 03:45:34;;;;;;;6.43;1.17;;;18.30;92.50;;;;;;4990759;28;20038;-72
2022/07/31 03:48:01;;;;;;;1.48;0.85;;;18.40;92.20;;;;;;4990551;28;20109;-72
2022/07/31 03:50:27;;;;;;;3.08;1.13;;;18.50;92.00;;;;;;4990347;28;20403;-72
2022/07/31 03:52:54;;;;;;;2.05;1.00;;;18.50;92.50;;;;;;4990419;28;20137;-72
2022/07/31 03:55:19;;;;;;;3.85;1.08;;;18.40;92.60;;;;;;4990483;28;20038;-72
2022/07/31 03:57:46;;;;;;;2.38;0.90;;;18.20;92.80;;;;;;4989581;28;20125;-72
2022/07/31 04:00:12;;;;;;;1.63;1.05;;;17.90;93.30;;;;;;4987233;28;20037;-72
2022/07/31 04:02:38;;;;;;;2.83;1.10;;;18.00;93.10;;;;;;4988018;28;20034;-72
2022/07/31 04:05:04;;;;;;;2.83;1.17;;;18.30;92.30;;;;;;4987471;28;20654;-72
2022/07/31 04:07:29;;;;;;;2.53;1.10;;;18.20;92.60;;;;;;4987911;28;20369;-72
2022/07/31 04:09:55;;;;;;;2.25;1.10;;;18.20;92.50;;;;;;5017837;28;20166;-72
2022/07/31 04:12:21;;;;;;;1.55;0.80;;;18.40;92.30;;;;;;4987138;28;20210;-72
2022/07/31 04:14:47;;;;;;;2.47;1.10;;;18.40;92.50;;;;;;4987113;28;20065;-72
2022/07/31 04:17:13;;;;;;;2.85;1.10;;;18.40;92.70;;;;;;4987185;28;20046;-72
2022/07/31 04:19:38;;;;;;;4.03;1.27;;;18.30;92.80;;;;;;4987364;28;20033;-72
2022/07/31 04:22:04;;;;;;;4.57;1.25;;;18.20;93.00;;;;;;4987093;28;20026;-72
2022/07/31 04:24:30;;;;;;;2.15;0.95;;;17.90;93.50;;;;;;4986629;28;20046;-72
2022/07/31 04:26:56;;;;;;;3.70;1.30;;;17.70;94.40;;;;;;4986663;28;20416;-72
2022/07/31 04:29:22;;;;;;;3.42;1.15;;;17.90;93.20;;;;;;4986963;28;20113;-72
2022/07/31 04:31:48;;;;;;;3.65;1.38;;;18.10;93.20;;;;;;4986827;28;20034;-72
2022/07/31 04:34:14;;;;;;;2.40;1.10;;;18.30;93.00;;;;;;4987435;28;20038;-72
2022/07/31 04:36:40;;;;;;;2.97;1.30;;;18.40;93.00;;;;;;4986752;28;20031;-72
2022/07/31 04:39:05;;;;;;;2.85;1.20;;;18.30;93.10;;;;;;4986754;28;20022;-72
2022/07/31 04:41:31;;;;;;;2.08;1.00;;;18.30;93.20;;;;;;4987254;28;20109;-72
2022/07/31 04:43:58;;;;;;;1.52;0.85;;;18.00;93.80;;;;;;4986509;28;20045;-72
2022/07/31 04:46:24;;;;;;;3.97;1.10;;;17.70;94.40;;;;;;4987455;28;20033;-72
2022/07/31 04:48:50;;;;;;;4.45;1.58;;;17.90;94.50;;;;;;4987015;28;20026;-72
2022/07/31 04:51:21;;;;;;;1.35;0.80;;;18.00;94.40;;;;;;4986316;28;20096;-72
2022/07/31 04:53:48;;;;;;;2.22;1.10;;;18.00;93.90;;;;;;4986404;28;20050;-72
2022/07/31 04:59:06;;;;;;;2.30;1.27;;;18.10;94.70;;;;;;4986732;28;20073;-72
2022/07/31 05:01:33;;;;;;;1.83;0.82;;;17.90;95.30;;;;;;4986666;28;20044;-72
2022/07/31 05:03:59;;;;;;;3.22;1.08;;;17.50;95.80;;;;;;4986246;28;20030;-73
2022/07/31 05:06:48;;;;;;;2.85;1.02;;;17.60;95.50;;;;;;4986107;28;20385;-72
2022/07/31 05:09:16;;;;;;;3.05;1.20;;;17.80;95.00;;;;;;4986062;28;20022;-72
2022/07/31 05:11:42;;;;;;;2.38;1.23;;;17.90;94.60;;;;;;4986050;28;20114;-73
2022/07/31 05:14:09;;;;;;;2.60;1.33;;;18.00;94.70;;;;;;4985777;28;20428;-72
2022/07/31 05:16:36;;;;;;;2.10;1.05;;;17.90;94.90;;;;;;4985829;28;20034;-72
2022/07/31 05:19:04;;;;;;;1.90;1.10;;;17.80;95.50;;;;;;4985783;28;20555;-72
2022/07/31 05:21:30;;;;;;;2.78;1.23;;;17.60;95.90;;;;;;4985474;28;20393;-72
2022/07/31 05:23:57;;;;;;;2.38;0.88;;;17.60;96.00;;;;;;4985899;28;20058;-72
2022/07/31 05:26:23;;;;;;;2.95;1.20;;;17.50;96.00;;;;;;4985629;28;20049;-72
2022/07/31 05:28:50;;;;;;;1.88;1.02;;;17.50;96.20;;;;;;4985853;28;20038;-72
2022/07/31 05:31:17;;;;;;;4.60;1.13;;;17.60;96.00;;;;;;4985802;28;20033;-72
2022/07/31 05:33:44;;;;;;;2.78;0.95;;;17.80;95.70;;;;;;4985549;28;20277;-72
2022/07/31 05:36:10;;;;;;;6.45;1.13;;;17.80;95.50;;;;;;4985637;28;20026;-72
2022/07/31 05:38:36;;;;;;;5.45;1.27;;;17.60;96.30;;;;;;4985515;28;20480;-72
2022/07/31 05:41:01;;;;;;;4.80;1.52;;;17.70;96.30;;;;;;4985541;28;20449;-72
2022/07/31 05:43:27;;;;;;;2.70;1.60;;;17.70;96.50;;;;;;4985035;28;20126;-72
2022/07/31 05:45:53;;;;;;;1.90;0.98;;;17.90;95.20;;;;;;4988274;28;20537;-72
2022/07/31 05:48:19;;;;;;;3.17;1.30;;;18.20;95.30;;;;;;4988567;28;20022;-72
2022/07/31 05:50:46;;;;;;;2.58;1.23;;;18.40;94.40;;;;;;4988944;28;20033;-72
2022/07/31 05:53:15;;;;;;;5.05;1.33;;;18.40;94.90;;;;;;4988307;28;20046;-72
2022/07/31 05:55:42;;;;;;;3.78;1.67;;;18.50;95.20;;;;;;4988301;28;20026;-72
2022/07/31 05:58:08;;;;;;;2.65;1.08;;;18.50;95.20;;;;;;4988083;28;20037;-73
2022/07/31 06:00:34;;;;;;;2.72;1.20;;;18.40;95.40;;;;;;4988538;28;20022;-72
2022/07/31 06:03:01;;;;;;;2.38;1.25;;;18.50;95.40;;;;;;4987901;28;20393;-72
2022/07/31 06:05:27;;;;;;;3.47;1.30;;;18.50;96.60;;;;;;4984924;28;20034;-72
2022/07/31 06:07:53;;;;;;;3.63;1.38;;;18.60;96.40;;;;;;4985516;28;20459;-72
2022/07/31 06:10:19;;;;;;;3.10;1.08;;;18.70;94.00;;;;;;4988170;28;20080;-72
2022/07/31 06:12:45;;;;;;;3.10;1.20;;;19.10;92.60;;;;;;4988191;28;20109;-72
2022/07/31 06:15:11;;;;;;;2.35;1.38;;;19.30;92.20;;;;;;4988125;28;20218;-72
2022/07/31 06:17:40;;;;;;;2.83;1.20;;;19.40;91.90;;;;;;4987828;28;20038;-72
2022/07/31 06:20:06;;;;;;;2.13;1.20;;;19.40;92.50;;;;;;4988056;28;20420;-72
2022/07/31 06:22:32;;;;;;;1.90;1.20;;;19.50;91.50;;;;;;4988005;28;20116;-72
2022/07/31 06:24:57;;;;;;;10.10;2.00;;;19.70;91.20;;;;;;4988026;28;20544;-72
2022/07/31 06:27:23;;;;;;;3.10;1.30;;;19.70;91.30;;;;;;4987827;28;20400;-72
2022/07/31 06:29:49;;;;;;;4.00;1.30;;;19.80;91.60;;;;;;4988386;28;20519;-72
2022/07/31 06:32:14;;;;;;;2.17;1.38;;;19.70;93.00;;;;;;4988074;28;20057;-72
2022/07/31 06:34:41;;;;;;;2.88;1.08;;;19.70;92.70;;;;;;4990543;28;20033;-72
2022/07/31 06:37:07;;;;;;;1.92;1.13;;;19.70;91.70;;;;;;4991905;28;20035;-72
2022/07/31 06:39:33;;;;;;;4.20;1.25;;;19.90;91.60;;;;;;4991841;28;20038;-72
2022/07/31 06:41:59;;;;;;;2.53;1.23;;;20.00;92.90;;;;;;4991980;28;20045;-72
2022/07/31 06:44:24;;;;;;;2.95;1.60;;;20.00;93.80;;;;;;4992094;28;20483;-72
2022/07/31 06:46:50;;;;;;;4.15;1.50;;;20.10;94.20;;;;;;4991836;28;20026;-72
2022/07/31 06:49:17;;;;;;;2.70;1.38;;;20.10;94.60;;;;;;4992048;28;20034;-72
2022/07/31 06:51:43;;;;;;;2.00;1.20;;;20.00;95.00;;;;;;4991609;28;20444;-72
2022/07/31 06:54:10;;;;;;;3.35;1.45;;;20.20;93.50;;;;;;4991656;28;20049;-72
2022/07/31 06:56:37;;;;;;;2.55;1.20;;;20.40;91.50;;;;;;4988589;28;20034;-72
2022/07/31 06:59:05;;;;;;;3.33;1.30;;;20.80;91.70;;;;;;4988631;28;20030;-72
2022/07/31 07:01:31;;;;;;;4.72;2.38;;;21.10;91.50;;;;;;4988413;28;20088;-72
2022/07/31 07:03:57;;;;;;;2.78;1.48;;;21.30;90.80;;;;;;4988342;28;20050;-73
2022/07/31 07:06:23;;;;;;;2.72;1.25;;;21.50;91.00;;;;;;4988790;28;20400;-72
2022/07/31 07:08:49;;;;;;;3.35;1.30;;;21.80;90.90;;;;;;4988084;28;20054;-72
2022/07/31 07:11:15;;;;;;;3.22;1.80;;;21.90;90.20;;;;;;4989794;28;20041;-72
2022/07/31 07:13:41;;;;;;;2.42;1.40;;;22.10;90.00;;;;;;4991483;28;20030;-72
2022/07/31 07:16:07;;;;;;;3.72;1.65;;;22.50;90.10;;;;;;4991294;28;20272;-72
2022/07/31 07:18:32;;;;;;;3.33;1.38;;;22.50;90.90;;;;;;4991175;28;20031;-72
2022/07/31 07:20:58;;;;;;;2.60;1.27;;;22.70;90.80;;;;;;4991162;28;20034;-72
2022/07/31 07:23:24;;;;;;;2.10;1.17;;;23.00;88.30;;;;;;4991388;28;20030;-72
2022/07/31 07:25:50;;;;;;;4.72;1.50;;;23.60;86.90;;;;;;4990872;28;20281;-72
2022/07/31 07:28:16;;;;;;;3.25;1.50;;;24.90;85.30;;;;;;4990982;28;20046;-72
2022/07/31 07:30:42;;;;;;;2.63;1.30;;;25.30;82.20;;;;;;4991066;28;20058;-73
2022/07/31 07:33:08;;;;;;;2.13;1.30;;;26.10;81.20;;;;;;4990728;28;20085;-72
2022/07/31 07:35:33;;;;;;;4.13;1.63;;;27.70;79.70;;;;;;4990885;28;20030;-72
2022/07/31 07:37:59;;;;;;;2.90;1.60;;;29.10;78.60;;;;;;4990597;28;20023;-72
2022/07/31 07:40:25;;;;;;;2.60;1.40;;;29.30;78.00;;;;;;4990503;28;20456;-72
2022/07/31 07:42:52;;;;;;;3.05;1.55;;;28.60;77.10;;;;;;4991073;28;20450;-73
2022/07/31 07:45:18;;;;;;;2.28;1.25;;;29.00;75.90;;;;;;4991391;28;20034;-72
2022/07/31 07:47:43;;;;;;;2.97;1.50;;;28.80;75.00;;;;;;4990727;28;20077;-72
2022/07/31 07:50:10;;;;;;;3.50;1.30;;;28.70;76.10;;;;;;4990659;28;20031;-72
2022/07/31 07:52:36;;;;;;;3.50;1.55;;;28.50;75.50;;;;;;4990520;28;20459;-73
2022/07/31 07:55:03;;;;;;;3.08;1.55;;;28.80;74.70;;;;;;4991049;28;20053;-73
2022/07/31 07:57:29;;;;;;;3.05;1.27;;;29.20;75.10;;;;;;4990944;28;20035;-72
2022/07/31 07:59:58;;;;;;;4.50;1.65;;;29.70;76.70;;;;;;4990676;28;20063;-72
2022/07/31 08:02:24;;;;;;;3.22;1.60;;;29.30;74.70;;;;;;4990649;28;20439;-72
2022/07/31 08:04:49;;;;;;;2.13;1.25;;;27.60;77.80;;;;;;4990605;28;20035;-72
2022/07/31 08:07:25;;;;;;;2.17;1.20;;;25.40;79.70;;;;;;4990528;28;20405;-72
2022/07/31 08:09:50;;;;;;;3.13;1.65;;;24.50;81.90;;;;;;4990672;28;20050;-72
2022/07/31 08:12:16;;;;;;;3.45;1.42;;;24.20;83.20;;;;;;4990524;28;20225;-72
2022/07/31 08:14:42;;;;;;;3.20;1.38;;;24.30;84.10;;;;;;4990649;28;20018;-72
2022/07/31 08:17:11;;;;;;;4.95;1.40;;;25.60;82.20;;;;;;4990402;28;20042;-72
2022/07/31 08:19:36;;;;;;;3.40;1.33;;;26.90;80.60;;;;;;4990553;28;20019;-72
2022/07/31 08:22:02;;;;;;;5.03;1.25;;;27.70;79.40;;;;;;4990383;28;20033;-73
2022/07/31 08:24:28;;;;;;;2.92;1.33;;;27.70;78.00;;;;;;4990122;28;20066;-72
2022/07/31 08:29:37;;;;;;;;;;;27.90;79.40;;;;;;4990285;28;20052;-72
2022/07/31 08:32:03;;;;;;;3.13;1.30;;;27.40;78.20;;;;;;4989876;28;20423;-72
2022/07/31 08:34:29;;;;;;;2.30;1.20;;;27.60;78.60;;;;;;4990004;28;20517;-72
2022/07/31 08:36:54;;;;;;;4.47;1.85;;;26.50;80.20;;;;;;4990182;28;20105;-72
2022/07/31 08:39:20;;;;;;;4.40;1.48;;;25.90;81.10;;;;;;4989837;28;20034;-72
2022/07/31 08:41:45;;;;;;;2.13;1.30;;;26.10;80.90;;;;;;4989912;28;20074;-72
2022/07/31 08:44:11;;;;;;;3.15;1.50;;;26.00;80.20;;;;;;4989545;28;20037;-73
2022/07/31 08:46:38;;;;;;;2.10;1.15;;;26.00;80.70;;;;;;4989587;28;20030;-72
2022/07/31 08:49:08;;;;;;;2.50;1.30;;;25.60;81.50;;;;;;4989600;28;20026;-73
2022/07/31 08:51:36;;;;;;;4.32;1.42;;;25.60;81.60;;;;;;4989738;28;20027;-72
2022/07/31 08:54:07;;;;;;;2.30;1.30;;;25.30;82.10;;;;;;4989759;28;20042;-72
2022/07/31 08:56:34;;;;;;;3.78;1.38;;;25.20;81.30;;;;;;4989125;28;20265;-72
2022/07/31 08:59:00;;;;;;;3.45;1.50;;;25.40;83.80;;;;;;4989821;28;20503;-73
2022/07/31 09:01:26;;;;;;;2.88;1.40;;;25.70;85.60;;;;;;4989469;28;20065;-72
2022/07/31 09:03:53;;;;;;;3.13;1.40;;;25.80;83.90;;;;;;4989807;28;20061;-73
2022/07/31 09:06:19;;;;;;;3.13;1.63;;;26.00;84.20;;;;;;4989363;28;20404;-72
2022/07/31 09:08:45;;;;;;;3.63;1.38;;;25.90;80.20;;;;;;4989181;28;20030;-73
2022/07/31 09:11:12;;;;;;;6.15;1.70;;;25.90;80.70;;;;;;4989105;28;20116;-73
2022/07/31 09:13:40;;;;;;;2.25;1.30;;;25.90;85.40;;;;;;4989158;28;20102;-72
2022/07/31 09:16:06;;;;;;;5.50;1.55;;;26.20;80.90;;;;;;4988840;28;20489;-73
2022/07/31 09:18:32;;;;;;;3.88;1.52;;;26.20;82.00;;;;;;4989084;28;20213;-72
2022/07/31 09:21:05;;;;;;;3.33;1.50;;;26.20;82.10;;;;;;4988958;28;20117;-72
2022/07/31 09:23:32;;;;;;;2.65;1.15;;;26.30;83.80;;;;;;4988781;28;20030;-73
2022/07/31 09:25:58;;;;;;;2.58;1.20;;;26.30;81.10;;;;;;4988757;28;20074;-72
2022/07/31 09:28:35;;;;;;;1.98;1.15;;;26.50;82.50;;;;;;4988902;28;20485;-72
2022/07/31 09:31:01;;;;;;;2.42;1.30;;;26.70;83.50;;;;;;4988481;28;20038;-72
2022/07/31 09:33:29;;;;;;;4.00;1.48;;;26.70;83.00;;;;;;4988739;28;20061;-73
2022/07/31 09:35:55;;;;;;;2.70;1.30;;;26.80;83.60;;;;;;4988757;28;20030;-73
2022/07/31 09:38:30;;;;;;;1.73;1.08;;;26.70;81.60;;;;;;4988767;28;20050;-72
2022/07/31 09:40:55;;;;;;;2.92;1.23;;;26.40;81.60;;;;;;4988527;28;20041;-72
2022/07/31 09:43:26;;;;;;;2.60;1.52;;;26.50;83.40;;;;;;4988785;28;20038;-73
2022/07/31 09:45:57;;;;;;;3.20;1.30;;;27.00;81.50;;;;;;4988662;28;20542;-73
2022/07/31 09:48:23;;;;;;;2.47;1.30;;;27.00;80.40;;;;;;4988542;28;20050;-72
2022/07/31 09:50:54;;;;;;;2.78;1.30;;;27.20;82.10;;;;;;4988647;28;20057;-72
2022/07/31 09:53:20;;;;;;;3.65;1.35;;;27.20;78.50;;;;;;4988258;28;20039;-72
2022/07/31 09:55:50;;;;;;;3.25;1.58;;;27.20;80.20;;;;;;4988450;28;20255;-72
2022/07/31 09:58:15;;;;;;;2.00;1.10;;;27.20;80.20;;;;;;4988545;28;20037;-74
2022/07/31 10:00:41;;;;;;;3.88;1.60;;;27.40;80.90;;;;;;4988555;28;20034;-72
2022/07/31 10:03:08;;;;;;;12.90;1.50;;;27.50;83.10;;;;;;4988315;28;20488;-73
2022/07/31 10:05:36;;;;;;;2.75;1.42;;;27.40;81.40;;;;;;4988624;28;20038;-73
2022/07/31 10:08:03;;;;;;;3.13;1.50;;;27.50;80.70;;;;;;4987486;28;20428;-73
2022/07/31 10:10:30;;;;;;;3.17;1.65;;;27.40;78.60;;;;;;4988225;28;20030;-74
2022/07/31 10:13:00;;;;;;;4.18;1.65;;;27.60;79.80;;;;;;4988290;28;20117;-73
2022/07/31 10:15:27;;;;;;;3.85;1.38;;;28.10;80.10;;;;;;4988257;28;20030;-73
2022/07/31 10:17:53;;;;;;;4.05;1.60;;;28.50;78.70;;;;;;4988063;28;20029;-73
2022/07/31 10:20:23;;;;;;;8.13;1.85;;;28.40;79.20;;;;;;4988195;28;20542;-74
2022/07/31 10:22:54;;;;;;;2.53;1.25;;;28.10;78.20;;;;;;4987927;28;20443;-73
2022/07/31 10:25:30;;;;;;;3.50;1.10;;;28.10;80.00;;;;;;4988093;28;20527;-74
2022/07/31 10:27:56;;;;;;;2.08;1.10;;;28.30;78.10;;;;;;4987837;28;20436;-73
2022/07/31 10:30:23;;;;;;;2.60;1.27;;;28.40;79.50;;;;;;4987869;28;20057;-73
2022/07/31 10:32:49;;;;;;;4.53;1.50;;;28.60;79.90;;;;;;4987932;28;20104;-73
2022/07/31 10:35:16;;;;;;;2.45;1.45;;;28.80;80.40;;;;;;4987750;28;20026;-73
2022/07/31 10:37:44;;;;;;;2.17;1.10;;;29.10;80.00;;;;;;4987781;28;20026;-74
2022/07/31 10:40:25;;;;;;;3.70;1.10;;;28.90;76.10;;;;;;4988212;28;20034;-74
2022/07/31 10:43:28;;;;;;;2.15;1.30;;;28.90;75.90;;;;;;4987997;28;20054;-74
2022/07/31 10:45:54;;;;;;;2.00;0.98;;;28.90;76.70;;;;;;4987699;28;20405;-73
2022/07/31 10:48:21;;;;;;;3.70;1.10;;;29.00;76.60;;;;;;4987688;28;20515;-73
2022/07/31 10:50:59;;;;;;;5.15;1.35;;;28.90;74.80;;;;;;4988071;28;20496;-73
2022/07/31 10:53:25;;;;;;;2.08;1.08;;;28.80;75.30;;;;;;4988236;28;20073;-73
2022/07/31 10:56:03;;;;;;;3.22;1.08;;;29.10;76.20;;;;;;4988054;28;20026;-74
2022/07/31 10:58:29;;;;;;;4.50;0.90;;;29.00;75.30;;;;;;4988199;28;20022;-74
2022/07/31 11:01:08;;;;;;;2.35;1.20;;;28.90;73.10;;;;;;4987901;28;20027;-74
2022/07/31 11:03:39;;;;;;;2.25;1.00;;;28.90;75.50;;;;;;4988136;28;20045;-73
2022/07/31 11:06:05;;;;;;;3.13;1.17;;;29.20;75.60;;;;;;4987421;28;20030;-74
2022/07/31 11:08:46;;;;;;;4.25;1.17;;;29.10;73.60;;;;;;4987538;28;20543;-74
2022/07/31 11:11:12;;;;;;;2.95;0.90;;;29.30;71.80;;;;;;4987905;28;20095;-74
2022/07/31 11:13:45;;;;;;;2.60;1.10;;;29.70;74.70;;;;;;4987993;28;20036;-74
2022/07/31 11:16:11;;;;;;;2.38;1.10;;;30.00;76.10;;;;;;4987607;28;20033;-73
2022/07/31 11:18:36;;;;;;;2.22;1.00;;;30.30;75.90;;;;;;4988069;28;20022;-73
2022/07/31 11:21:05;;;;;;;5.60;1.52;;;30.20;76.30;;;;;;4990160;28;20125;-74
2022/07/31 11:23:32;;;;;;;4.20;2.00;;;30.20;76.60;;;;;;4991681;28;20030;-74
2022/07/31 11:26:00;;;;;;;7.00;1.30;;;30.00;74.50;;;;;;4991121;28;20042;-74
2022/07/31 11:28:26;;;;;;;2.80;1.17;;;30.10;74.60;;;;;;4991166;28;20034;-74
2022/07/31 11:30:52;;;;;;;2.42;1.05;;;30.20;75.80;;;;;;4991348;28;20096;-74
2022/07/31 11:33:59;;;;;;;5.47;1.08;;;30.40;77.90;;;;;;4991426;28;20224;-74
2022/07/31 11:36:25;;;;;;;5.32;1.20;;;30.10;75.10;;;;;;4992903;28;20112;-74
2022/07/31 11:38:56;;;;;;;2.78;1.20;;;29.90;76.50;;;;;;4991339;28;20029;-74
2022/07/31 11:41:27;;;;;;;4.43;1.80;;;30.20;73.20;;;;;;4990988;28;20096;-74
2022/07/31 11:43:54;;;;;;;4.32;1.17;;;30.10;74.20;;;;;;4990938;28;20042;-74
2022/07/31 11:46:48;;;;;;;1.85;1.02;;;30.50;78.30;;;;;;4991025;28;20034;-74
2022/07/31 11:49:20;;;;;;;2.00;0.80;;;30.60;73.40;;;;;;4991812;28;20046;-74
2022/07/31 11:51:46;;;;;;;1.55;0.88;;;30.70;75.20;;;;;;4990556;28;20077;-74
2022/07/31 11:54:25;;;;;;;2.20;1.08;;;30.80;75.10;;;;;;4990476;28;20213;-74
2022/07/31 11:56:54;;;;;;;5.13;1.60;;;30.80;74.10;;;;;;4990455;28;20038;-74
2022/07/31 11:59:37;;;;;;;2.15;0.88;;;30.90;74.60;;;;;;4990608;28;20101;-74
2022/07/31 12:02:11;;;;;;;2.28;1.00;;;31.00;73.70;;;;;;4990627;28;20030;-74
2022/07/31 12:04:38;;;;;;;2.10;1.10;;;30.80;73.20;;;;;;4990325;28;20030;-74
2022/07/31 12:07:05;;;;;;;1.60;1.00;;;31.30;76.00;;;;;;4990226;28;20030;-74
2022/07/31 12:09:33;;;;;;;3.70;1.10;;;31.10;74.00;;;;;;4990434;28;20520;-74
2022/07/31 12:11:59;;;;;;;4.20;1.20;;;31.10;76.30;;;;;;4990651;28;20038;-74
2022/07/31 12:14:36;;;;;;;2.45;1.00;;;31.10;73.50;;;;;;4990452;28;20093;-74
2022/07/31 12:17:05;;;;;;;2.58;1.08;;;31.10;73.10;;;;;;4990130;28;20030;-74
2022/07/31 12:19:33;;;;;;;3.22;0.90;;;31.70;75.90;;;;;;4989938;28;20477;-74
2022/07/31 12:22:00;;;;;;;2.38;1.35;;;32.00;73.80;;;;;;4990146;28;20061;-74
2022/07/31 12:24:26;;;;;;;2.58;1.17;;;31.70;71.70;;;;;;4990097;28;20038;-74
2022/07/31 12:26:58;;;;;;;1.95;0.90;;;31.80;76.10;;;;;;4990073;28;20114;-74
2022/07/31 12:29:31;;;;;;;2.35;0.93;;;31.70;71.80;;;;;;4990100;28;20022;-74
2022/07/31 12:31:57;;;;;;;2.17;1.00;;;31.80;72.70;;;;;;4988855;28;20031;-74
2022/07/31 12:34:30;;;;;;;2.42;1.27;;;31.90;71.90;;;;;;4989905;28;20029;-74
2022/07/31 12:37:16;;;;;;;2.83;0.95;;;32.10;75.80;;;;;;4989918;28;20034;-74
2022/07/31 12:39:49;;;;;;;4.82;1.30;;;32.00;72.00;;;;;;4989821;28;20231;-74
2022/07/31 12:42:25;;;;;;;2.65;1.27;;;32.00;73.00;;;;;;4989839;28;20393;-74
2022/07/31 12:44:52;;;;;;;2.55;1.15;;;32.30;74.50;;;;;;4989846;28;20110;-74
2022/07/31 12:47:23;;;;;;;2.20;1.40;;;32.10;70.00;;;;;;4989924;28;20088;-74
2022/07/31 12:49:49;;;;;;;4.10;1.30;;;32.30;71.30;;;;;;4989804;28;20027;-74
2022/07/31 12:52:17;;;;;;;6.30;1.02;;;32.30;72.60;;;;;;4989429;28;20056;-74
2022/07/31 12:54:43;;;;;;;2.80;1.17;;;32.40;70.80;;;;;;4990011;28;20023;-74
2022/07/31 12:57:27;;;;;;;2.42;1.15;;;32.10;69.10;;;;;;4989627;28;20088;-74